sensor_id;sensor_type;location;lat;lon;timestamp;pressure;altitude;pressure_sealevel;temperature;humidity
10881;BME280;5493;48.884;8.338;2023-04-10T00:02:22;100766.09;;;8.19;100.00
10881;BME280;5493;48.884;8.338;2023-04-10T00:04:48;100767.09;;;8.18;100.00
10881;BME280;5493;48.884;8.338;2023-04-10T00:07:15;100773.03;;;8.49;100.00
10881;BME280;5493;48.884;8.338;2023-04-10T00:09:42;100764.81;;;8.36;100.00
10881;BME280;5493;48.884;8.338;2023-04-10T00:12:09;100778.13;;;8.44;100.00
10881;BME280;5493;48.884;8.338;2023-04-10T00:14:37;100777.13;;;8.45;100.00
10881;BME280;5493;48.884;8.338;2023-04-10T00:17:03;100772.25;;;8.13;100.00
10881;BME280;5493;48.884;8.338;2023-04-10T00:19:30;100782.97;;;8.13;100.00
10881;BME280;5493;48.884;8.338;2023-04-10T00:21:56;100782.47;;;8.24;100.00
10881;BME280;5493;48.884;8.338;2023-04-10T00:24:23;100785.88;;;8.32;100.00
10881;BME280;5493;48.884;8.338;2023-04-10T00:26:49;100777.03;;;8.17;100.00
10881;BME280;5493;48.884;8.338;2023-04-10T00:29:16;100777.63;;;7.77;100.00
10881;BME280;5493;48.884;8.338;2023-04-10T00:31:44;100778.66;;;7.76;100.00
10881;BME280;5493;48.884;8.338;2023-04-10T00:34:10;100782.50;;;7.52;100.00
10881;BME280;5493;48.884;8.338;2023-04-10T00:36:38;100773.22;;;7.69;100.00
10881;BME280;5493;48.884;8.338;2023-04-10T00:39:04;100775.03;;;7.83;100.00
10881;BME280;5493;48.884;8.338;2023-04-10T00:41:31;100776.28;;;7.66;100.00
10881;BME280;5493;48.884;8.338;2023-04-10T00:43:59;100771.81;;;7.23;100.00
10881;BME280;5493;48.884;8.338;2023-04-10T00:46:26;100770.66;;;7.47;100.00
10881;BME280;5493;48.884;8.338;2023-04-10T00:48:54;100781.63;;;7.30;100.00
10881;BME280;5493;48.884;8.338;2023-04-10T00:51:22;100776.88;;;7.32;100.00
10881;BME280;5493;48.884;8.338;2023-04-10T00:53:49;100777.78;;;7.39;100.00
10881;BME280;5493;48.884;8.338;2023-04-10T00:56:16;100768.91;;;7.39;100.00
10881;BME280;5493;48.884;8.338;2023-04-10T00:58:43;100774.13;;;7.11;100.00
10881;BME280;5493;48.884;8.338;2023-04-10T01:01:10;100776.88;;;7.18;100.00
10881;BME280;5493;48.884;8.338;2023-04-10T01:03:38;100766.22;;;7.54;100.00
10881;BME280;5493;48.884;8.338;2023-04-10T01:06:13;100770.75;;;7.38;100.00
10881;BME280;5493;48.884;8.338;2023-04-10T01:08:46;100774.88;;;7.05;100.00
10881;BME280;5493;48.884;8.338;2023-04-10T01:11:25;100771.53;;;7.03;100.00
10881;BME280;5493;48.884;8.338;2023-04-10T01:14:00;100770.13;;;7.07;100.00
10881;BME280;5493;48.884;8.338;2023-04-10T01:16:34;100778.72;;;7.03;100.00
10881;BME280;5493;48.884;8.338;2023-04-10T01:19:07;100769.03;;;7.02;100.00
10881;BME280;5493;48.884;8.338;2023-04-10T01:21:40;100778.00;;;6.94;100.00
10881;BME280;5493;48.884;8.338;2023-04-10T01:24:19;100777.34;;;6.92;100.00
10881;BME280;5493;48.884;8.338;2023-04-10T01:26:58;100773.16;;;6.75;100.00
10881;BME280;5493;48.884;8.338;2023-04-10T01:29:29;100763.47;;;6.88;100.00
10881;BME280;5493;48.884;8.338;2023-04-10T01:32:01;100774.63;;;6.77;100.00
10881;BME280;5493;48.884;8.338;2023-04-10T01:34:32;100778.28;;;7.14;100.00
10881;BME280;5493;48.884;8.338;2023-04-10T01:37:03;100778.28;;;7.14;100.00
10881;BME280;5493;48.884;8.338;2023-04-10T01:39:34;100779.28;;;7.13;100.00
10881;BME280;5493;48.884;8.338;2023-04-10T01:42:02;100783.72;;;7.06;100.00
10881;BME280;5493;48.884;8.338;2023-04-10T01:44:33;100781.50;;;7.09;100.00
10881;BME280;5493;48.884;8.338;2023-04-10T01:47:02;100788.44;;;6.89;100.00
10881;BME280;5493;48.884;8.338;2023-04-10T01:49:31;100789.34;;;6.81;100.00
10881;BME280;5493;48.884;8.338;2023-04-10T01:51:59;100786.75;;;6.88;100.00
10881;BME280;5493;48.884;8.338;2023-04-10T01:54:26;100782.06;;;7.05;100.00
10881;BME280;5493;48.884;8.338;2023-04-10T01:56:53;100784.84;;;6.97;100.00
10881;BME280;5493;48.884;8.338;2023-04-10T01:59:20;100788.38;;;7.12;100.00
10881;BME280;5493;48.884;8.338;2023-04-10T02:01:54;100787.53;;;6.97;100.00
10881;BME280;5493;48.884;8.338;2023-04-10T02:04:21;100776.78;;;6.97;100.00
10881;BME280;5493;48.884;8.338;2023-04-10T02:06:51;100768.84;;;6.88;100.00
10881;BME280;5493;48.884;8.338;2023-04-10T02:09:29;100759.41;;;6.92;100.00
10881;BME280;5493;48.884;8.338;2023-04-10T02:11:58;100769.13;;;6.93;100.00
10881;BME280;5493;48.884;8.338;2023-04-10T02:14:30;100754.06;;;6.92;100.00
10881;BME280;5493;48.884;8.338;2023-04-10T02:17:00;100756.09;;;7.05;100.00
10881;BME280;5493;48.884;8.338;2023-04-10T02:19:30;100752.28;;;7.14;100.00
10881;BME280;5493;48.884;8.338;2023-04-10T02:21:57;100748.16;;;7.12;100.00
10881;BME280;5493;48.884;8.338;2023-04-10T02:24:24;100748.59;;;7.15;100.00
10881;BME280;5493;48.884;8.338;2023-04-10T02:26:52;100758.19;;;7.10;100.00
10881;BME280;5493;48.884;8.338;2023-04-10T02:29:19;100755.34;;;6.97;100.00
10881;BME280;5493;48.884;8.338;2023-04-10T02:31:45;100759.59;;;7.06;100.00
10881;BME280;5493;48.884;8.338;2023-04-10T02:34:13;100753.22;;;7.21;100.00
10881;BME280;5493;48.884;8.338;2023-04-10T02:36:40;100756.66;;;7.01;100.00
10881;BME280;5493;48.884;8.338;2023-04-10T02:39:06;100751.19;;;6.79;100.00
10881;BME280;5493;48.884;8.338;2023-04-10T02:41:33;100753.03;;;6.93;100.00
10881;BME280;5493;48.884;8.338;2023-04-10T02:44:00;100756.44;;;7.02;100.00
10881;BME280;5493;48.884;8.338;2023-04-10T02:46:26;100748.69;;;6.92;100.00
10881;BME280;5493;48.884;8.338;2023-04-10T02:48:53;100745.69;;;7.31;100.00
10881;BME280;5493;48.884;8.338;2023-04-10T02:51:20;100742.56;;;6.84;100.00
10881;BME280;5493;48.884;8.338;2023-04-10T02:53:47;100748.06;;;6.90;100.00
10881;BME280;5493;48.884;8.338;2023-04-10T02:56:13;100746.31;;;6.98;100.00
10881;BME280;5493;48.884;8.338;2023-04-10T02:58:40;100741.56;;;6.85;100.00
10881;BME280;5493;48.884;8.338;2023-04-10T03:01:10;100735.94;;;6.80;100.00
10881;BME280;5493;48.884;8.338;2023-04-10T03:03:37;100739.91;;;6.84;100.00
10881;BME280;5493;48.884;8.338;2023-04-10T03:06:04;100731.84;;;6.84;100.00
10881;BME280;5493;48.884;8.338;2023-04-10T03:08:32;100729.00;;;6.85;100.00
10881;BME280;5493;48.884;8.338;2023-04-10T03:10:58;100719.97;;;6.86;100.00
10881;BME280;5493;48.884;8.338;2023-04-10T03:13:25;100731.03;;;6.69;100.00
10881;BME280;5493;48.884;8.338;2023-04-10T03:15:51;100727.41;;;7.06;100.00
10881;BME280;5493;48.884;8.338;2023-04-10T03:18:18;100724.94;;;7.19;100.00
10881;BME280;5493;48.884;8.338;2023-04-10T03:20:44;100724.03;;;6.97;100.00
10881;BME280;5493;48.884;8.338;2023-04-10T03:23:11;100701.88;;;7.24;100.00
10881;BME280;5493;48.884;8.338;2023-04-10T03:25:39;100707.22;;;7.39;100.00
10881;BME280;5493;48.884;8.338;2023-04-10T03:28:05;100707.63;;;7.21;100.00
10881;BME280;5493;48.884;8.338;2023-04-10T03:30:32;100694.13;;;7.29;100.00
10881;BME280;5493;48.884;8.338;2023-04-10T03:32:59;100697.03;;;7.34;100.00
10881;BME280;5493;48.884;8.338;2023-04-10T03:35:26;100685.75;;;7.39;100.00
10881;BME280;5493;48.884;8.338;2023-04-10T03:37:52;100687.59;;;7.38;100.00
10881;BME280;5493;48.884;8.338;2023-04-10T03:40:19;100683.72;;;7.41;100.00
10881;BME280;5493;48.884;8.338;2023-04-10T03:42:46;100676.25;;;7.36;100.00
10881;BME280;5493;48.884;8.338;2023-04-10T03:45:13;100673.28;;;7.31;100.00
10881;BME280;5493;48.884;8.338;2023-04-10T03:47:40;100676.84;;;7.03;100.00
10881;BME280;5493;48.884;8.338;2023-04-10T03:50:07;100666.59;;;6.91;100.00
10881;BME280;5493;48.884;8.338;2023-04-10T03:52:33;100670.50;;;6.89;100.00
10881;BME280;5493;48.884;8.338;2023-04-10T03:55:00;100674.56;;;6.85;100.00
10881;BME280;5493;48.884;8.338;2023-04-10T03:57:26;100671.72;;;6.57;100.00
10881;BME280;5493;48.884;8.338;2023-04-10T03:59:54;100672.72;;;6.85;100.00
10881;BME280;5493;48.884;8.338;2023-04-10T04:02:21;100671.50;;;7.03;100.00
10881;BME280;5493;48.884;8.338;2023-04-10T04:04:47;100679.44;;;7.11;100.00
10881;BME280;5493;48.884;8.338;2023-04-10T04:07:14;100682.13;;;7.11;100.00
10881;BME280;5493;48.884;8.338;2023-04-10T04:09:40;100685.81;;;6.95;100.00
10881;BME280;5493;48.884;8.338;2023-04-10T04:12:07;100680.13;;;6.98;100.00
10881;BME280;5493;48.884;8.338;2023-04-10T04:14:33;100681.78;;;6.70;100.00
10881;BME280;5493;48.884;8.338;2023-04-10T04:17:01;100682.59;;;6.41;100.00
10881;BME280;5493;48.884;8.338;2023-04-10T04:19:28;100678.16;;;6.92;100.00
10881;BME280;5493;48.884;8.338;2023-04-10T04:21:54;100682.97;;;6.67;100.00
10881;BME280;5493;48.884;8.338;2023-04-10T04:24:22;100682.34;;;6.80;100.00
10881;BME280;5493;48.884;8.338;2023-04-10T04:26:48;100678.00;;;6.64;100.00
10881;BME280;5493;48.884;8.338;2023-04-10T04:29:15;100677.31;;;6.48;100.00
10881;BME280;5493;48.884;8.338;2023-04-10T04:31:41;100677.06;;;6.57;100.00
10881;BME280;5493;48.884;8.338;2023-04-10T04:34:09;100675.94;;;6.81;100.00
10881;BME280;5493;48.884;8.338;2023-04-10T04:36:35;100671.44;;;6.81;100.00
10881;BME280;5493;48.884;8.338;2023-04-10T04:39:02;100671.63;;;6.80;100.00
10881;BME280;5493;48.884;8.338;2023-04-10T04:41:29;100665.44;;;6.65;100.00
10881;BME280;5493;48.884;8.338;2023-04-10T04:43:56;100676.69;;;6.46;100.00
10881;BME280;5493;48.884;8.338;2023-04-10T04:46:23;100677.63;;;6.67;100.00
10881;BME280;5493;48.884;8.338;2023-04-10T04:48:49;100681.44;;;6.58;100.00
10881;BME280;5493;48.884;8.338;2023-04-10T04:51:17;100689.72;;;6.78;100.00
10881;BME280;5493;48.884;8.338;2023-04-10T04:53:44;100687.78;;;6.72;100.00
10881;BME280;5493;48.884;8.338;2023-04-10T04:56:10;100687.56;;;6.44;100.00
10881;BME280;5493;48.884;8.338;2023-04-10T04:58:37;100687.38;;;6.31;100.00
10881;BME280;5493;48.884;8.338;2023-04-10T05:01:04;100689.94;;;6.24;100.00
10881;BME280;5493;48.884;8.338;2023-04-10T05:03:31;100689.44;;;6.43;100.00
10881;BME280;5493;48.884;8.338;2023-04-10T05:05:57;100693.31;;;6.70;100.00
10881;BME280;5493;48.884;8.338;2023-04-10T05:08:25;100695.75;;;6.65;100.00
10881;BME280;5493;48.884;8.338;2023-04-10T05:10:51;100696.91;;;6.63;100.00
10881;BME280;5493;48.884;8.338;2023-04-10T05:13:18;100697.13;;;6.76;100.00
10881;BME280;5493;48.884;8.338;2023-04-10T05:15:44;100702.94;;;6.50;100.00
10881;BME280;5493;48.884;8.338;2023-04-10T05:18:11;100705.41;;;6.52;100.00
10881;BME280;5493;48.884;8.338;2023-04-10T05:20:38;100694.25;;;6.63;100.00
10881;BME280;5493;48.884;8.338;2023-04-10T05:23:05;100700.25;;;6.50;100.00
10881;BME280;5493;48.884;8.338;2023-04-10T05:25:34;100702.09;;;6.50;100.00
10881;BME280;5493;48.884;8.338;2023-04-10T05:28:00;100706.81;;;6.62;100.00
10881;BME280;5493;48.884;8.338;2023-04-10T05:30:30;100695.47;;;6.75;100.00
10881;BME280;5493;48.884;8.338;2023-04-10T05:32:56;100690.38;;;6.65;100.00
10881;BME280;5493;48.884;8.338;2023-04-10T05:35:23;100687.03;;;6.78;100.00
10881;BME280;5493;48.884;8.338;2023-04-10T05:37:49;100682.69;;;6.91;100.00
10881;BME280;5493;48.884;8.338;2023-04-10T05:40:16;100687.41;;;6.89;100.00
10881;BME280;5493;48.884;8.338;2023-04-10T05:42:43;100684.91;;;6.88;100.00
10881;BME280;5493;48.884;8.338;2023-04-10T05:45:10;100687.31;;;7.12;100.00
10881;BME280;5493;48.884;8.338;2023-04-10T05:47:39;100689.63;;;7.15;100.00
10881;BME280;5493;48.884;8.338;2023-04-10T05:50:06;100690.84;;;7.49;100.00
10881;BME280;5493;48.884;8.338;2023-04-10T05:52:32;100695.66;;;7.38;100.00
10881;BME280;5493;48.884;8.338;2023-04-10T05:54:59;100700.25;;;7.09;100.00
10881;BME280;5493;48.884;8.338;2023-04-10T05:57:25;100702.34;;;7.13;100.00
10881;BME280;5493;48.884;8.338;2023-04-10T05:59:53;100701.28;;;7.08;100.00
10881;BME280;5493;48.884;8.338;2023-04-10T06:02:20;100701.28;;;7.43;100.00
10881;BME280;5493;48.884;8.338;2023-04-10T06:04:47;100698.06;;;7.90;100.00
10881;BME280;5493;48.884;8.338;2023-04-10T06:07:13;100695.00;;;7.93;100.00
10881;BME280;5493;48.884;8.338;2023-04-10T06:09:40;100691.09;;;7.75;100.00
10881;BME280;5493;48.884;8.338;2023-04-10T06:12:06;100691.09;;;7.75;100.00
10881;BME280;5493;48.884;8.338;2023-04-10T06:14:34;100695.22;;;7.92;100.00
10881;BME280;5493;48.884;8.338;2023-04-10T06:17:02;100693.13;;;8.15;100.00
10881;BME280;5493;48.884;8.338;2023-04-10T06:19:28;100692.72;;;8.39;100.00
10881;BME280;5493;48.884;8.338;2023-04-10T06:21:55;100698.69;;;8.63;100.00
10881;BME280;5493;48.884;8.338;2023-04-10T06:24:21;100694.59;;;8.67;100.00
10881;BME280;5493;48.884;8.338;2023-04-10T06:26:48;100693.31;;;8.63;100.00
10881;BME280;5493;48.884;8.338;2023-04-10T06:29:15;100695.81;;;8.99;100.00
10881;BME280;5493;48.884;8.338;2023-04-10T06:31:41;100695.66;;;9.74;100.00
10881;BME280;5493;48.884;8.338;2023-04-10T06:34:09;100690.34;;;10.40;100.00
10881;BME280;5493;48.884;8.338;2023-04-10T06:36:35;100682.72;;;11.07;100.00
10881;BME280;5493;48.884;8.338;2023-04-10T06:39:02;100684.97;;;11.23;100.00
10881;BME280;5493;48.884;8.338;2023-04-10T06:41:31;100690.13;;;11.31;100.00
10881;BME280;5493;48.884;8.338;2023-04-10T06:43:57;100683.19;;;11.87;100.00
10881;BME280;5493;48.884;8.338;2023-04-10T06:46:26;100683.72;;;12.02;100.00
10881;BME280;5493;48.884;8.338;2023-04-10T06:48:52;100691.44;;;12.23;100.00
10881;BME280;5493;48.884;8.338;2023-04-10T06:51:20;100681.78;;;12.33;100.00
10881;BME280;5493;48.884;8.338;2023-04-10T06:53:46;100680.84;;;11.97;100.00
10881;BME280;5493;48.884;8.338;2023-04-10T06:56:13;100676.75;;;12.19;100.00
10881;BME280;5493;48.884;8.338;2023-04-10T06:58:39;100674.19;;;12.24;100.00
10881;BME280;5493;48.884;8.338;2023-04-10T07:01:06;100675.16;;;12.05;100.00
10881;BME280;5493;48.884;8.338;2023-04-10T07:03:32;100673.88;;;12.57;100.00
10881;BME280;5493;48.884;8.338;2023-04-10T07:05:59;100669.22;;;11.96;100.00
10881;BME280;5493;48.884;8.338;2023-04-10T07:08:28;100671.03;;;12.02;100.00
10881;BME280;5493;48.884;8.338;2023-04-10T07:10:55;100660.84;;;12.29;100.00
10881;BME280;5493;48.884;8.338;2023-04-10T07:13:21;100664.75;;;12.76;100.00
10881;BME280;5493;48.884;8.338;2023-04-10T07:15:48;100661.16;;;12.39;100.00
10881;BME280;5493;48.884;8.338;2023-04-10T07:18:15;100670.00;;;12.71;100.00
10881;BME280;5493;48.884;8.338;2023-04-10T07:20:42;100667.97;;;12.84;100.00
10881;BME280;5493;48.884;8.338;2023-04-10T07:23:08;100670.16;;;12.94;100.00
10881;BME280;5493;48.884;8.338;2023-04-10T07:25:36;100664.00;;;12.69;100.00
10881;BME280;5493;48.884;8.338;2023-04-10T07:28:03;100659.88;;;13.21;100.00
10881;BME280;5493;48.884;8.338;2023-04-10T07:30:30;100648.41;;;13.37;100.00
10881;BME280;5493;48.884;8.338;2023-04-10T07:32:56;100652.44;;;13.35;100.00
10881;BME280;5493;48.884;8.338;2023-04-10T07:35:23;100657.97;;;13.40;100.00
10881;BME280;5493;48.884;8.338;2023-04-10T07:37:49;100657.03;;;13.46;100.00
10881;BME280;5493;48.884;8.338;2023-04-10T07:40:16;100654.44;;;13.69;100.00
10881;BME280;5493;48.884;8.338;2023-04-10T07:42:44;100659.53;;;13.77;98.86
10881;BME280;5493;48.884;8.338;2023-04-10T07:45:11;100664.88;;;13.95;91.60
10881;BME280;5493;48.884;8.338;2023-04-10T07:47:38;100658.50;;;14.01;74.11
10881;BME280;5493;48.884;8.338;2023-04-10T07:50:06;100662.56;;;14.22;67.96
10881;BME280;5493;48.884;8.338;2023-04-10T07:52:33;100672.72;;;14.26;65.15
10881;BME280;5493;48.884;8.338;2023-04-10T07:55:00;100659.78;;;14.87;70.30
10881;BME280;5493;48.884;8.338;2023-04-10T07:57:27;100661.75;;;14.91;68.63
10881;BME280;5493;48.884;8.338;2023-04-10T07:59:55;100659.38;;;14.95;57.29
10881;BME280;5493;48.884;8.338;2023-04-10T08:02:22;100659.38;;;14.95;57.62
10881;BME280;5493;48.884;8.338;2023-04-10T08:04:48;100666.19;;;15.09;54.91
10881;BME280;5493;48.884;8.338;2023-04-10T08:07:15;100668.47;;;15.52;55.62
10881;BME280;5493;48.884;8.338;2023-04-10T08:09:42;100660.50;;;15.62;54.21
10881;BME280;5493;48.884;8.338;2023-04-10T08:12:08;100658.69;;;16.29;56.69
10881;BME280;5493;48.884;8.338;2023-04-10T08:14:35;100655.97;;;16.12;52.90
10881;BME280;5493;48.884;8.338;2023-04-10T08:17:03;100660.25;;;16.97;55.28
10881;BME280;5493;48.884;8.338;2023-04-10T08:19:29;100655.38;;;17.20;50.52
10881;BME280;5493;48.884;8.338;2023-04-10T08:21:56;100650.78;;;17.69;49.99
10881;BME280;5493;48.884;8.338;2023-04-10T08:24:22;100654.19;;;18.13;46.82
10881;BME280;5493;48.884;8.338;2023-04-10T08:26:49;100655.69;;;18.31;44.42
10881;BME280;5493;48.884;8.338;2023-04-10T08:29:15;100653.94;;;18.15;43.45
10881;BME280;5493;48.884;8.338;2023-04-10T08:31:41;100654.81;;;19.04;44.04
10881;BME280;5493;48.884;8.338;2023-04-10T08:34:09;100653.53;;;18.65;42.34
10881;BME280;5493;48.884;8.338;2023-04-10T08:36:36;100650.53;;;19.24;44.94
10881;BME280;5493;48.884;8.338;2023-04-10T08:39:02;100647.47;;;18.58;41.17
10881;BME280;5493;48.884;8.338;2023-04-10T08:41:29;100643.72;;;18.69;44.12
10881;BME280;5493;48.884;8.338;2023-04-10T08:43:55;100647.00;;;18.71;44.63
10881;BME280;5493;48.884;8.338;2023-04-10T08:46:22;100648.56;;;19.14;43.55
10881;BME280;5493;48.884;8.338;2023-04-10T08:48:54;100645.00;;;19.08;41.80
10881;BME280;5493;48.884;8.338;2023-04-10T08:51:26;100640.31;;;19.86;39.70
10881;BME280;5493;48.884;8.338;2023-04-10T08:53:57;100636.44;;;20.73;41.77
10881;BME280;5493;48.884;8.338;2023-04-10T08:56:25;100637.63;;;20.22;40.75
10881;BME280;5493;48.884;8.338;2023-04-10T08:58:52;100627.25;;;20.29;40.23
10881;BME280;5493;48.884;8.338;2023-04-10T09:01:20;100622.19;;;20.81;38.12
10881;BME280;5493;48.884;8.338;2023-04-10T09:03:47;100625.56;;;21.37;37.85
10881;BME280;5493;48.884;8.338;2023-04-10T09:06:13;100625.41;;;22.64;38.08
10881;BME280;5493;48.884;8.338;2023-04-10T09:08:41;100620.16;;;23.58;34.09
10881;BME280;5493;48.884;8.338;2023-04-10T09:11:08;100620.41;;;23.93;34.98
10881;BME280;5493;48.884;8.338;2023-04-10T09:13:36;100619.59;;;22.66;32.73
10881;BME280;5493;48.884;8.338;2023-04-10T09:16:03;100603.41;;;24.83;32.04
10881;BME280;5493;48.884;8.338;2023-04-10T09:18:41;100590.72;;;25.10;31.28
10881;BME280;5493;48.884;8.338;2023-04-10T09:21:08;100595.59;;;23.42;31.92
10881;BME280;5493;48.884;8.338;2023-04-10T09:23:35;100590.81;;;23.67;32.73
10881;BME280;5493;48.884;8.338;2023-04-10T09:26:21;100584.91;;;23.73;31.08
10881;BME280;5493;48.884;8.338;2023-04-10T09:28:56;100587.38;;;22.95;32.86
10881;BME280;5493;48.884;8.338;2023-04-10T09:31:27;100575.13;;;24.32;30.63
10881;BME280;5493;48.884;8.338;2023-04-10T09:34:06;100571.97;;;24.38;30.89
10881;BME280;5493;48.884;8.338;2023-04-10T09:36:32;100576.44;;;24.94;31.08
10881;BME280;5493;48.884;8.338;2023-04-10T09:38:59;100567.72;;;25.14;30.77
10881;BME280;5493;48.884;8.338;2023-04-10T09:41:27;100567.53;;;24.70;30.53
10881;BME280;5493;48.884;8.338;2023-04-10T09:44:04;100569.59;;;25.41;31.06
10881;BME280;5493;48.884;8.338;2023-04-10T09:46:32;100565.38;;;25.08;29.62
10881;BME280;5493;48.884;8.338;2023-04-10T09:49:00;100559.56;;;24.41;29.82
10881;BME280;5493;48.884;8.338;2023-04-10T09:51:30;100559.88;;;24.80;30.39
10881;BME280;5493;48.884;8.338;2023-04-10T09:53:58;100548.53;;;24.41;30.16
10881;BME280;5493;48.884;8.338;2023-04-10T09:56:27;100548.63;;;24.63;31.47
10881;BME280;5493;48.884;8.338;2023-04-10T09:58:57;100545.13;;;24.71;29.87
10881;BME280;5493;48.884;8.338;2023-04-10T10:01:25;100542.50;;;24.93;29.59
10881;BME280;5493;48.884;8.338;2023-04-10T10:03:53;100539.81;;;25.16;29.44
10881;BME280;5493;48.884;8.338;2023-04-10T10:06:21;100532.59;;;24.92;30.52
10881;BME280;5493;48.884;8.338;2023-04-10T10:08:48;100537.09;;;24.61;29.62
10881;BME280;5493;48.884;8.338;2023-04-10T10:11:17;100537.25;;;23.40;30.91
10881;BME280;5493;48.884;8.338;2023-04-10T10:13:48;100527.88;;;24.25;31.81
10881;BME280;5493;48.884;8.338;2023-04-10T10:16:20;100533.09;;;24.81;32.06
10881;BME280;5493;48.884;8.338;2023-04-10T10:18:53;100527.25;;;24.28;30.38
10881;BME280;5493;48.884;8.338;2023-04-10T10:21:20;100520.66;;;24.70;32.34
10881;BME280;5493;48.884;8.338;2023-04-10T10:23:48;100526.56;;;24.90;31.31
10881;BME280;5493;48.884;8.338;2023-04-10T10:26:19;100519.41;;;24.76;30.62
10881;BME280;5493;48.884;8.338;2023-04-10T10:28:49;100531.31;;;23.52;30.77
10881;BME280;5493;48.884;8.338;2023-04-10T10:31:17;100519.31;;;24.94;31.66
10881;BME280;5493;48.884;8.338;2023-04-10T10:33:44;100516.28;;;25.32;30.86
10881;BME280;5493;48.884;8.338;2023-04-10T10:36:12;100512.06;;;24.98;30.03
10881;BME280;5493;48.884;8.338;2023-04-10T10:38:49;100503.84;;;25.43;29.40
10881;BME280;5493;48.884;8.338;2023-04-10T10:41:24;100504.78;;;25.38;29.35
10881;BME280;5493;48.884;8.338;2023-04-10T10:44:00;100499.94;;;25.44;29.08
10881;BME280;5493;48.884;8.338;2023-04-10T10:46:36;100497.50;;;25.42;29.42
10881;BME280;5493;48.884;8.338;2023-04-10T10:49:06;100492.69;;;25.70;29.55
10881;BME280;5493;48.884;8.338;2023-04-10T10:51:42;100498.59;;;25.77;29.75
10881;BME280;5493;48.884;8.338;2023-04-10T10:54:26;100490.91;;;25.30;28.69
10881;BME280;5493;48.884;8.338;2023-04-10T10:56:55;100497.91;;;25.14;30.35
10881;BME280;5493;48.884;8.338;2023-04-10T10:59:53;100493.31;;;25.89;29.54
10881;BME280;5493;48.884;8.338;2023-04-10T11:02:22;100488.56;;;25.23;30.14
10881;BME280;5493;48.884;8.338;2023-04-10T11:04:48;100489.09;;;25.47;29.63
10881;BME280;5493;48.884;8.338;2023-04-10T11:07:15;100482.19;;;25.01;29.99
10881;BME280;5493;48.884;8.338;2023-04-10T11:09:44;100488.63;;;24.82;30.17
10881;BME280;5493;48.884;8.338;2023-04-10T11:12:11;100479.78;;;24.99;30.35
10881;BME280;5493;48.884;8.338;2023-04-10T11:14:39;100486.34;;;25.12;30.38
10881;BME280;5493;48.884;8.338;2023-04-10T11:17:09;100477.34;;;24.57;29.16
10881;BME280;5493;48.884;8.338;2023-04-10T11:19:58;100479.16;;;25.60;30.11
10881;BME280;5493;48.884;8.338;2023-04-10T11:22:26;100472.06;;;25.10;30.54
10881;BME280;5493;48.884;8.338;2023-04-10T11:24:57;100461.88;;;24.96;29.94
10881;BME280;5493;48.884;8.338;2023-04-10T11:27:44;100458.47;;;25.13;30.76
10881;BME280;5493;48.884;8.338;2023-04-10T11:30:39;100445.06;;;25.42;30.67
10881;BME280;5493;48.884;8.338;2023-04-10T11:33:07;100437.72;;;25.60;31.68
10881;BME280;5493;48.884;8.338;2023-04-10T11:35:34;100432.72;;;26.02;34.75
10881;BME280;5493;48.884;8.338;2023-04-10T11:38:15;100439.94;;;26.59;29.71
10881;BME280;5493;48.884;8.338;2023-04-10T11:40:56;100445.22;;;26.21;30.34
10881;BME280;5493;48.884;8.338;2023-04-10T11:43:22;100441.84;;;26.41;29.60
10881;BME280;5493;48.884;8.338;2023-04-10T11:45:49;100436.22;;;26.55;33.04
10881;BME280;5493;48.884;8.338;2023-04-10T11:48:17;100436.66;;;26.09;30.18
10881;BME280;5493;48.884;8.338;2023-04-10T11:50:44;100435.97;;;26.34;30.52
10881;BME280;5493;48.884;8.338;2023-04-10T11:53:17;100429.34;;;25.74;28.55
10881;BME280;5493;48.884;8.338;2023-04-10T11:55:44;100429.34;;;25.74;29.42
10881;BME280;5493;48.884;8.338;2023-04-10T11:58:22;100432.59;;;25.76;30.01
10881;BME280;5493;48.884;8.338;2023-04-10T12:00:58;100427.72;;;25.06;28.62
10881;BME280;5493;48.884;8.338;2023-04-10T12:03:37;100420.16;;;24.08;28.84
10881;BME280;5493;48.884;8.338;2023-04-10T12:06:08;100414.28;;;24.91;28.67
10881;BME280;5493;48.884;8.338;2023-04-10T12:08:37;100401.94;;;25.11;29.85
10881;BME280;5493;48.884;8.338;2023-04-10T12:11:04;100407.25;;;25.07;29.73
10881;BME280;5493;48.884;8.338;2023-04-10T12:13:31;100403.34;;;25.00;29.33
10881;BME280;5493;48.884;8.338;2023-04-10T12:15:58;100399.53;;;25.62;30.82
10881;BME280;5493;48.884;8.338;2023-04-10T12:18:26;100401.38;;;25.44;30.22
10881;BME280;5493;48.884;8.338;2023-04-10T12:20:54;100383.50;;;25.64;31.71
10881;BME280;5493;48.884;8.338;2023-04-10T12:23:22;100390.13;;;25.41;30.86
10881;BME280;5493;48.884;8.338;2023-04-10T12:25:49;100390.88;;;25.33;30.23
10881;BME280;5493;48.884;8.338;2023-04-10T12:28:17;100387.09;;;25.20;30.31
10881;BME280;5493;48.884;8.338;2023-04-10T12:30:48;100375.25;;;23.66;30.92
10881;BME280;5493;48.884;8.338;2023-04-10T12:33:19;100381.59;;;24.21;30.86
10881;BME280;5493;48.884;8.338;2023-04-10T12:35:46;100381.97;;;24.42;30.39
10881;BME280;5493;48.884;8.338;2023-04-10T12:38:14;100376.84;;;24.63;30.57
10881;BME280;5493;48.884;8.338;2023-04-10T12:40:59;100376.69;;;24.32;29.86
10881;BME280;5493;48.884;8.338;2023-04-10T12:43:33;100380.19;;;24.73;30.60
10881;BME280;5493;48.884;8.338;2023-04-10T12:46:00;100368.59;;;24.63;29.75
10881;BME280;5493;48.884;8.338;2023-04-10T12:48:27;100371.09;;;23.96;29.21
10881;BME280;5493;48.884;8.338;2023-04-10T12:50:54;100372.22;;;24.09;29.47
10881;BME280;5493;48.884;8.338;2023-04-10T12:53:23;100366.91;;;24.26;29.26
10881;BME280;5493;48.884;8.338;2023-04-10T12:56:00;100365.31;;;23.51;29.28
10881;BME280;5493;48.884;8.338;2023-04-10T12:58:28;100366.25;;;23.47;30.03
10881;BME280;5493;48.884;8.338;2023-04-10T13:00:56;100351.34;;;23.48;30.29
10881;BME280;5493;48.884;8.338;2023-04-10T13:03:23;100352.91;;;23.81;29.80
10881;BME280;5493;48.884;8.338;2023-04-10T13:05:50;100357.81;;;23.71;29.13
10881;BME280;5493;48.884;8.338;2023-04-10T13:08:17;100351.91;;;23.91;30.26